Time;durP1;ratioP1;P1;durP2;ratioP2;P2;SDS_P1;SDS_P2;PMS_P1;PMS_P2;Temp;Humidity;BMP_temperature;BMP_pressure;BME280_temperature;BME280_humidity;BME280_pressure;Samples;Min_cycle;Max_cycle;Signal;HPM_P1;HPM_P2
2024/01/07 00:00:11;;;;;;;;;;;;;;;18.47;63.98;96582.00;2087337;28;20011;-65
2024/01/07 00:01:12;;;;;;;;;;;;;;;18.45;63.96;96580.66;2087625;28;20430;-65
2024/01/07 00:02:14;;;;;;;;;;;;;;;18.45;64.18;96584.13;2090448;28;19983;-65
2024/01/07 00:03:14;;;;;;;;;;;;;;;18.45;63.95;96572.59;2088283;28;19929;-64
2024/01/07 00:04:16;;;;;;;;;;;;;;;18.44;63.96;96579.00;2088688;28;20494;-65
2024/01/07 00:05:17;;;;;;;;;;;;;;;18.45;64.10;96583.31;2091595;28;19978;-65
2024/01/07 00:06:18;;;;;;;;;;;;;;;18.46;64.13;96580.38;2087169;28;22143;-64
2024/01/07 00:07:20;;;;;;;;;;;;;;;18.44;63.98;96585.22;2087356;28;20950;-64
2024/01/07 00:08:22;;;;;;;;;;;;;;;18.42;64.27;96578.47;2087956;28;19932;-64
2024/01/07 00:09:24;;;;;;;;;;;;;;;18.43;63.97;96574.72;2087748;28;19976;-64
2024/01/07 00:10:25;;;;;;;;;;;;;;;18.42;64.05;96576.59;2089283;28;19966;-65
2024/01/07 00:11:26;;;;;;;;;;;;;;;18.44;63.97;96585.22;2090859;28;20400;-64
2024/01/07 00:12:27;;;;;;;;;;;;;;;18.43;64.00;96583.56;2089351;28;19972;-64
2024/01/07 00:13:28;;;;;;;;;;;;;;;18.44;64.20;96577.16;2090637;28;19933;-64
2024/01/07 00:14:29;;;;;;;;;;;;;;;18.44;64.23;96571.78;2092044;28;19957;-64
2024/01/07 00:15:31;;;;;;;;;;;;;;;18.43;64.34;96570.16;2086870;28;21054;-64
2024/01/07 00:16:31;;;;;;;;;;;;;;;18.44;64.15;96579.00;2088590;28;19989;-64
2024/01/07 00:17:33;;;;;;;;;;;;;;;18.45;64.03;96581.44;2085939;28;19929;-64
2024/01/07 00:18:34;;;;;;;;;;;;;;;18.44;64.28;96569.09;2090427;28;19939;-65
2024/01/07 00:19:37;;;;;;;;;;;;;;;18.42;64.31;96576.59;2090219;28;19964;-65
2024/01/07 00:20:38;;;;;;;;;;;;;;;18.43;64.50;96577.41;2088054;28;20019;-65
2024/01/07 00:21:39;;;;;;;;;;;;;;;18.43;64.03;96572.03;2085630;28;20666;-64
2024/01/07 00:22:40;;;;;;;;;;;;;;;18.43;64.24;96578.19;2085118;28;19925;-64
2024/01/07 00:23:41;;;;;;;;;;;;;;;18.44;64.28;96573.63;2087182;28;20439;-64
2024/01/07 00:24:43;;;;;;;;;;;;;;;18.46;64.31;96572.31;2086248;28;19931;-64
2024/01/07 00:25:44;;;;;;;;;;;;;;;18.46;64.35;96576.88;2084770;28;19964;-63
2024/01/07 00:26:45;;;;;;;;;;;;;;;18.46;64.42;96576.88;2088783;28;19933;-64
2024/01/07 00:27:46;;;;;;;;;;;;;;;18.45;64.17;96569.91;2089062;28;19924;-63
2024/01/07 00:28:48;;;;;;;;;;;;;;;18.46;64.45;96582.25;2087167;28;19964;-64
2024/01/07 00:29:48;;;;;;;;;;;;;;;18.44;64.04;96573.63;2085810;28;19936;-64
2024/01/07 00:30:50;;;;;;;;;;;;;;;18.44;64.43;96579.00;2088468;28;20354;-64
2024/01/07 00:31:50;;;;;;;;;;;;;;;18.43;64.15;96583.56;2088340;28;19924;-64
2024/01/07 00:32:52;;;;;;;;;;;;;;;18.43;64.14;96575.50;2087491;28;19975;-64
2024/01/07 00:33:53;;;;;;;;;;;;;;;18.43;64.23;96583.56;2087347;28;20395;-64
2024/01/07 00:34:54;;;;;;;;;;;;;;;18.44;64.10;96582.53;2089531;28;19964;-63
2024/01/07 00:35:55;;;;;;;;;;;;;;;18.44;64.02;96579.00;2087630;28;20299;-63
2024/01/07 00:36:57;;;;;;;;;;;;;;;18.42;64.36;96575.78;2088547;28;19979;-64
2024/01/07 00:37:58;;;;;;;;;;;;;;;18.43;64.33;96580.88;2087881;28;19943;-64
2024/01/07 00:38:58;;;;;;;;;;;;;;;18.42;64.23;96581.16;2083544;28;20394;-64
2024/01/07 00:40:01;;;;;;;;;;;;;;;18.41;64.36;96576.81;2087623;28;19971;-65
2024/01/07 00:41:02;;;;;;;;;;;;;;;18.40;64.42;96580.59;2085285;28;19978;-62
2024/01/07 00:42:04;;;;;;;;;;;;;;;18.41;64.23;96580.31;2087912;28;19936;-63
2024/01/07 00:43:04;;;;;;;;;;;;;;;18.42;64.22;96581.16;2086137;28;19936;-64
2024/01/07 00:44:06;;;;;;;;;;;;;;;18.41;64.26;96585.69;2090455;28;20588;-64
2024/01/07 00:45:07;;;;;;;;;;;;;;;18.39;64.42;96582.47;2088544;28;19990;-65
2024/01/07 00:46:09;;;;;;;;;;;;;;;18.39;64.35;96585.16;2086087;28;19944;-65
2024/01/07 00:47:09;;;;;;;;;;;;;;;18.38;64.50;96580.81;2087957;28;20483;-63
2024/01/07 00:48:11;;;;;;;;;;;;;;;18.38;64.29;96590.75;2086690;28;19964;-64
2024/01/07 00:49:11;;;;;;;;;;;;;;;18.36;64.38;96580.28;2087886;28;19929;-64
2024/01/07 00:50:13;;;;;;;;;;;;;;;18.37;64.11;96581.09;2088304;28;19933;-64
2024/01/07 00:51:14;;;;;;;;;;;;;;;18.35;64.47;96584.00;2086180;28;19932;-64
2024/01/07 00:52:15;;;;;;;;;;;;;;;18.36;64.30;96582.97;2087341;28;19933;-64
2024/01/07 00:53:16;;;;;;;;;;;;;;;18.37;64.24;96584.56;2088029;28;19935;-64
2024/01/07 00:54:17;;;;;;;;;;;;;;;18.36;64.45;96580.28;2089554;28;19932;-64
2024/01/07 00:55:19;;;;;;;;;;;;;;;18.35;64.23;96586.69;2089284;28;19928;-64
2024/01/07 00:56:21;;;;;;;;;;;;;;;18.33;64.50;96586.16;2084961;28;19930;-64
2024/01/07 00:57:22;;;;;;;;;;;;;;;18.35;64.39;96585.88;2090203;28;20334;-65
2024/01/07 00:58:23;;;;;;;;;;;;;;;18.35;64.44;96586.69;2090051;28;19948;-64
2024/01/07 00:59:24;;;;;;;;;;;;;;;18.34;64.44;96593.13;2085261;28;19928;-64
2024/01/07 01:00:26;;;;;;;;;;;;;;;18.34;64.63;96595.81;2088468;28;20022;-65
2024/01/07 01:01:27;;;;;;;;;;;;;;;18.33;64.47;96593.38;2086874;28;19925;-64
2024/01/07 01:02:28;;;;;;;;;;;;;;;18.31;64.55;96591.75;2091666;28;19924;-65
2024/01/07 01:03:29;;;;;;;;;;;;;;;18.34;64.58;96603.06;2089355;28;20583;-66
2024/01/07 01:04:30;;;;;;;;;;;;;;;18.34;64.72;96595.00;2089313;28;20035;-64
2024/01/07 01:05:31;;;;;;;;;;;;;;;18.35;64.68;96597.44;2088572;28;20513;-65
2024/01/07 01:06:31;;;;;;;;;;;;;;;18.29;64.62;96604.63;2090944;28;19962;-63
2024/01/07 01:07:33;;;;;;;;;;;;;;;18.29;64.70;96607.28;2091297;28;19931;-65
2024/01/07 01:08:34;;;;;;;;;;;;;;;18.30;64.47;96606.25;2092392;28;19936;-65
2024/01/07 01:09:35;;;;;;;;;;;;;;;18.28;64.90;96603.00;2090133;28;20477;-65
2024/01/07 01:10:37;;;;;;;;;;;;;;;18.30;64.68;96602.72;2092695;28;20276;-65
2024/01/07 01:11:39;;;;;;;;;;;;;;;18.28;65.11;96599.50;2089698;28;20391;-65
2024/01/07 01:12:39;;;;;;;;;;;;;;;18.26;64.76;96599.75;2089968;28;19932;-64
2024/01/07 01:13:41;;;;;;;;;;;;;;;18.25;64.94;96603.50;2090295;28;19975;-65
2024/01/07 01:14:41;;;;;;;;;;;;;;;18.26;65.14;96598.94;2089230;28;20472;-65
2024/01/07 01:15:43;;;;;;;;;;;;;;;18.26;65.01;96605.13;2087072;28;20024;-65
2024/01/07 01:16:44;;;;;;;;;;;;;;;18.26;64.84;96602.44;2090824;28;19931;-64
2024/01/07 01:17:45;;;;;;;;;;;;;;;18.24;64.90;96604.53;2090765;28;19960;-65
2024/01/07 01:18:46;;;;;;;;;;;;;;;18.25;65.15;96602.69;2090219;28;19933;-65
2024/01/07 01:19:47;;;;;;;;;;;;;;;18.24;65.12;96609.09;2089188;28;19959;-65
2024/01/07 01:20:48;;;;;;;;;;;;;;;18.26;64.88;96604.31;2089268;28;19925;-65
2024/01/07 01:21:49;;;;;;;;;;;;;;;18.24;64.92;96601.88;2088575;28;20220;-65
2024/01/07 01:22:50;;;;;;;;;;;;;;;18.26;65.11;96604.31;2092588;28;19924;-63
2024/01/07 01:23:52;;;;;;;;;;;;;;;18.22;65.15;96606.69;2090742;28;19959;-64
2024/01/07 01:24:53;;;;;;;;;;;;;;;18.23;65.23;96604.81;2089511;28;19935;-64
2024/01/07 01:25:56;;;;;;;;;;;;;;;18.21;65.33;96605.06;2090663;28;20024;-65
2024/01/07 01:26:56;;;;;;;;;;;;;;;18.22;65.25;96600.50;2093097;28;19924;-64
2024/01/07 01:27:58;;;;;;;;;;;;;;;18.21;65.36;96618.47;2090415;28;20023;-64
2024/01/07 01:28:59;;;;;;;;;;;;;;;18.19;65.12;96603.69;2087469;28;19931;-64
2024/01/07 01:30:00;;;;;;;;;;;;;;;18.17;65.31;96603.94;2090016;28;19971;-64
2024/01/07 01:31:01;;;;;;;;;;;;;;;18.16;65.60;96607.66;2086403;28;19925;-64
2024/01/07 01:32:02;;;;;;;;;;;;;;;18.17;65.52;96606.63;2092342;28;19929;-63
2024/01/07 01:33:03;;;;;;;;;;;;;;;18.15;65.50;96608.75;2089413;28;19935;-64
2024/01/07 01:34:05;;;;;;;;;;;;;;;18.15;65.22;96603.38;2087966;28;19976;-65
2024/01/07 01:35:06;;;;;;;;;;;;;;;18.18;65.28;96602.06;2088984;28;19935;-64
2024/01/07 01:36:08;;;;;;;;;;;;;;;18.16;65.52;96604.19;2087948;28;19935;-63
2024/01/07 01:37:09;;;;;;;;;;;;;;;18.15;65.45;96602.56;2090250;28;19932;-65
2024/01/07 01:38:11;;;;;;;;;;;;;;;18.15;65.52;96605.25;2089644;28;19952;-65
2024/01/07 01:39:11;;;;;;;;;;;;;;;18.12;65.78;96606.56;2089105;28;19939;-64
2024/01/07 01:40:13;;;;;;;;;;;;;;;18.13;65.62;96610.84;2086871;28;19995;-64
2024/01/07 01:41:15;;;;;;;;;;;;;;;18.11;65.50;96606.78;2087148;28;19929;-64
2024/01/07 01:42:17;;;;;;;;;;;;;;;18.11;65.91;96607.63;2090523;28;19939;-64
2024/01/07 01:43:22;;;;;;;;;;;;;;;18.09;65.74;96607.88;2090084;28;19925;-64
2024/01/07 01:44:23;;;;;;;;;;;;;;;18.11;65.41;96607.63;2087364;28;19932;-64
2024/01/07 01:45:24;;;;;;;;;;;;;;;18.12;65.70;96609.25;2089009;28;20059;-65
2024/01/07 01:46:25;;;;;;;;;;;;;;;18.12;65.45;96608.44;2089652;28;20116;-65
2024/01/07 01:47:26;;;;;;;;;;;;;;;18.12;65.65;96614.59;2091071;28;19929;-65
2024/01/07 01:48:28;;;;;;;;;;;;;;;18.14;65.53;96611.69;2089108;28;19929;-65
2024/01/07 01:49:28;;;;;;;;;;;;;;;18.14;65.70;96614.38;2088166;28;19937;-64
2024/01/07 01:50:30;;;;;;;;;;;;;;;18.11;65.76;96613.00;2087931;28;19929;-64
2024/01/07 01:51:31;;;;;;;;;;;;;;;18.09;65.86;96605.19;2090275;28;19939;-64
2024/01/07 01:52:32;;;;;;;;;;;;;;;18.11;65.55;96613.00;2088252;28;20297;-65
2024/01/07 01:53:33;;;;;;;;;;;;;;;18.07;65.78;96612.66;2091692;28;19929;-64
2024/01/07 01:54:35;;;;;;;;;;;;;;;18.07;65.49;96612.66;2088786;28;19982;-65
2024/01/07 01:55:35;;;;;;;;;;;;;;;18.08;65.85;96610.81;2089064;28;19929;-65
2024/01/07 01:56:39;;;;;;;;;;;;;;;18.07;65.76;96609.97;2092182;28;19979;-65
2024/01/07 01:57:40;;;;;;;;;;;;;;;18.06;65.62;96627.16;2092233;28;19943;-64
2024/01/07 01:58:41;;;;;;;;;;;;;;;18.06;65.46;96623.66;2091157;28;20331;-64
2024/01/07 01:59:43;;;;;;;;;;;;;;;18.07;65.90;96609.97;2088266;28;19936;-64
2024/01/07 02:00:44;;;;;;;;;;;;;;;18.12;65.42;96617.28;2088095;28;19924;-64
2024/01/07 02:01:46;;;;;;;;;;;;;;;18.12;65.72;96613.81;2090233;28;20395;-63
2024/01/07 02:02:46;;;;;;;;;;;;;;;18.10;65.80;96611.34;2088190;28;19929;-64
2024/01/07 02:03:48;;;;;;;;;;;;;;;18.12;65.44;96619.16;2085998;28;19971;-64
2024/01/07 02:04:49;;;;;;;;;;;;;;;18.12;65.47;96614.59;2089238;28;20425;-63
2024/01/07 02:05:51;;;;;;;;;;;;;;;18.09;65.41;96618.59;2086926;28;19971;-64
2024/01/07 02:06:51;;;;;;;;;;;;;;;18.09;65.82;96617.78;2090986;28;20016;-64
2024/01/07 02:07:53;;;;;;;;;;;;;;;18.06;65.71;96621.78;2088355;28;19943;-65
2024/01/07 02:08:54;;;;;;;;;;;;;;;18.07;65.69;96625.28;2090391;28;20575;-64
2024/01/07 02:09:55;;;;;;;;;;;;;;;18.05;65.77;96612.13;2085135;28;19960;-64
2024/01/07 02:10:56;;;;;;;;;;;;;;;18.06;65.81;96616.41;2091346;28;19932;-64
2024/01/07 02:12:04;;;;;;;;;;;;;;;18.08;65.71;96613.50;2086615;28;19925;-64
2024/01/07 02:13:06;;;;;;;;;;;;;;;18.03;65.93;96621.47;2088451;28;19967;-65
2024/01/07 02:14:06;;;;;;;;;;;;;;;18.00;65.74;96617.41;2087121;28;20403;-64
2024/01/07 02:15:08;;;;;;;;;;;;;;;18.00;66.12;96617.41;2092564;28;19932;-64
2024/01/07 02:16:09;;;;;;;;;;;;;;;18.02;66.03;96623.31;2090499;28;19932;-65
2024/01/07 02:17:10;;;;;;;;;;;;;;;18.01;65.76;96619.03;2089064;28;20411;-64
2024/01/07 02:18:11;;;;;;;;;;;;;;;18.01;66.05;96620.91;2090880;28;19931;-63
2024/01/07 02:19:13;;;;;;;;;;;;;;;17.99;65.89;96623.81;2091020;28;20040;-65
2024/01/07 02:20:13;;;;;;;;;;;;;;;17.96;66.04;96615.47;2088947;28;20627;-64
2024/01/07 02:21:15;;;;;;;;;;;;;;;17.94;65.91;96613.06;2088877;28;19964;-64
2024/01/07 02:22:16;;;;;;;;;;;;;;;17.97;66.16;96625.97;2091301;28;20190;-63
2024/01/07 02:23:17;;;;;;;;;;;;;;;17.99;65.85;96620.34;2089961;28;20307;-64
2024/01/07 02:24:19;;;;;;;;;;;;;;;17.97;65.96;96612.56;2083789;28;19925;-63
2024/01/07 02:25:21;;;;;;;;;;;;;;;17.99;65.79;96614.97;2092029;28;20015;-63
2024/01/07 02:26:21;;;;;;;;;;;;;;;17.99;65.88;96617.66;2089770;28;19925;-63
2024/01/07 02:27:23;;;;;;;;;;;;;;;17.96;65.81;96621.63;2091213;28;20372;-63
2024/01/07 02:28:24;;;;;;;;;;;;;;;17.96;66.00;96620.84;2090289;28;19924;-64
2024/01/07 02:29:24;;;;;;;;;;;;;;;17.93;66.14;96616.78;2088731;28;19973;-64
2024/01/07 02:30:27;;;;;;;;;;;;;;;17.94;65.86;96620.25;2089196;28;19951;-65
2024/01/07 02:31:29;;;;;;;;;;;;;;;17.91;65.95;96624.25;2087686;28;23799;-65
2024/01/07 02:32:34;;;;;;;;;;;;;;;17.90;65.97;96617.28;2087936;28;20453;-65
2024/01/07 02:33:34;;;;;;;;;;;;;;;17.86;66.30;96616.97;2091897;28;20289;-63
2024/01/07 02:34:36;;;;;;;;;;;;;;;17.88;66.35;96622.06;2091670;28;20043;-65
2024/01/07 02:35:36;;;;;;;;;;;;;;;17.88;66.38;96610.53;2089953;28;20434;-64
2024/01/07 02:36:37;;;;;;;;;;;;;;;17.86;66.15;96616.97;2088007;28;20011;-64
2024/01/07 02:37:39;;;;;;;;;;;;;;;17.83;66.46;96613.97;2091568;28;19974;-65
2024/01/07 02:38:39;;;;;;;;;;;;;;;17.82;66.47;96610.44;2087045;28;20323;-64
2024/01/07 02:39:43;;;;;;;;;;;;;;;17.83;66.41;96613.97;2089644;28;19968;-65
2024/01/07 02:40:43;;;;;;;;;;;;;;;17.84;66.24;96618.25;2086567;28;20709;-65
2024/01/07 02:41:45;;;;;;;;;;;;;;;17.88;66.28;96613.22;2088992;28;19936;-65
2024/01/07 02:42:46;;;;;;;;;;;;;;;17.83;66.34;96616.66;2090058;28;19940;-65
2024/01/07 02:43:47;;;;;;;;;;;;;;;17.84;66.29;96611.03;2088751;28;19987;-63
2024/01/07 02:44:48;;;;;;;;;;;;;;;17.84;66.18;96615.59;2084466;28;19932;-65
2024/01/07 02:45:49;;;;;;;;;;;;;;;17.82;66.26;96620.38;2088358;28;20018;-64
2024/01/07 02:46:50;;;;;;;;;;;;;;;17.80;66.44;96617.97;2089375;28;19928;-65
2024/01/07 02:47:51;;;;;;;;;;;;;;;17.83;66.18;96619.34;2090982;28;19967;-65
2024/01/07 02:48:52;;;;;;;;;;;;;;;17.84;66.15;96615.59;2090033;28;19925;-65
2024/01/07 02:49:53;;;;;;;;;;;;;;;17.84;66.04;96615.59;2087030;28;19932;-64
2024/01/07 02:50:53;;;;;;;;;;;;;;;17.85;66.24;96615.31;2085955;28;20007;-64
2024/01/07 02:51:55;;;;;;;;;;;;;;;17.79;66.03;96618.19;2088398;28;20284;-65
2024/01/07 02:52:55;;;;;;;;;;;;;;;17.82;66.47;96615.00;2086396;28;19925;-64
2024/01/07 02:53:56;;;;;;;;;;;;;;;17.81;66.11;96613.41;2088946;28;20016;-65
2024/01/07 02:55:01;;;;;;;;;;;;;;;17.83;65.90;96617.47;2090975;28;20067;-64
2024/01/07 02:56:02;;;;;;;;;;;;;;;17.84;66.05;96611.03;2092028;28;20441;-65
2024/01/07 02:57:03;;;;;;;;;;;;;;;17.83;66.18;96614.78;2089641;28;19933;-64
2024/01/07 02:58:04;;;;;;;;;;;;;;;17.82;65.94;96617.69;2089600;28;19931;-64
2024/01/07 02:59:06;;;;;;;;;;;;;;;17.85;65.98;96619.88;2090463;28;19999;-63
2024/01/07 03:00:07;;;;;;;;;;;;;;;17.86;65.93;96611.59;2085999;28;20380;-64
2024/01/07 03:01:09;;;;;;;;;;;;;;;17.81;65.94;96613.41;2085636;28;20019;-64
2024/01/07 03:02:10;;;;;;;;;;;;;;;17.79;66.04;96618.19;2090476;28;19962;-65
2024/01/07 03:03:11;;;;;;;;;;;;;;;17.80;66.15;96623.31;2088875;28;19924;-63
2024/01/07 03:04:13;;;;;;;;;;;;;;;17.82;65.89;96620.38;2089163;28;19969;-64
2024/01/07 03:05:14;;;;;;;;;;;;;;;17.80;65.88;96612.59;2088518;28;19933;-64
2024/01/07 03:06:16;;;;;;;;;;;;;;;17.78;65.99;96606.66;2088576;28;19980;-64
2024/01/07 03:07:17;;;;;;;;;;;;;;;17.79;66.15;96615.50;2088510;28;19986;-63
2024/01/07 03:08:18;;;;;;;;;;;;;;;17.75;66.39;96617.03;2089798;28;19932;-64
2024/01/07 03:09:19;;;;;;;;;;;;;;;17.80;65.86;96609.91;2088359;28;19932;-64
2024/01/07 03:10:22;;;;;;;;;;;;;;;17.79;66.14;96610.94;2092106;28;20427;-65
2024/01/07 03:11:23;;;;;;;;;;;;;;;17.75;66.13;96614.38;2089976;28;20615;-65
2024/01/07 03:12:24;;;;;;;;;;;;;;;17.78;65.95;96619.22;2089666;28;20019;-64
2024/01/07 03:13:25;;;;;;;;;;;;;;;17.77;66.28;96612.22;2089144;28;20314;-65
2024/01/07 03:14:26;;;;;;;;;;;;;;;17.77;66.19;96607.66;2090059;28;20033;-65
2024/01/07 03:15:27;;;;;;;;;;;;;;;17.75;65.90;96603.63;2088901;28;19933;-64
2024/01/07 03:16:29;;;;;;;;;;;;;;;17.74;66.21;96604.69;2090799;28;19928;-63
2024/01/07 03:17:29;;;;;;;;;;;;;;;17.74;66.23;96605.47;2089309;28;19925;-65
2024/01/07 03:18:31;;;;;;;;;;;;;;;17.77;66.09;96606.88;2089338;28;20399;-64
2024/01/07 03:19:31;;;;;;;;;;;;;;;17.76;66.03;96600.69;2090771;28;19925;-64
2024/01/07 03:20:33;;;;;;;;;;;;;;;17.75;66.21;96609.00;2085288;28;19956;-64
2024/01/07 03:21:34;;;;;;;;;;;;;;;17.73;66.26;96606.56;2088627;28;19950;-64
2024/01/07 03:22:35;;;;;;;;;;;;;;;17.69;66.40;96608.13;2088082;28;19929;-64
2024/01/07 03:23:36;;;;;;;;;;;;;;;17.71;66.15;96611.34;2088639;28;19925;-64
2024/01/07 03:24:37;;;;;;;;;;;;;;;17.69;66.52;96612.66;2091967;28;19979;-64
2024/01/07 03:25:39;;;;;;;;;;;;;;;17.68;66.11;96606.47;2087481;28;19932;-63
2024/01/07 03:26:41;;;;;;;;;;;;;;;17.70;66.24;96611.59;2089637;28;19955;-65
2024/01/07 03:27:42;;;;;;;;;;;;;;;17.65;66.21;96610.47;2090212;28;19924;-64
2024/01/07 03:28:43;;;;;;;;;;;;;;;17.64;66.36;96613.41;2085883;28;19924;-64
2024/01/07 03:29:44;;;;;;;;;;;;;;;17.64;66.53;96608.84;2087177;28;19936;-64
2024/01/07 03:30:46;;;;;;;;;;;;;;;17.65;66.20;96605.09;2088688;28;20019;-64
2024/01/07 03:31:46;;;;;;;;;;;;;;;17.65;66.31;96612.34;2089585;28;20310;-64
2024/01/07 03:32:48;;;;;;;;;;;;;;;17.65;66.02;96613.13;2091475;28;20019;-65
2024/01/07 03:33:48;;;;;;;;;;;;;;;17.63;66.38;96604.56;2091682;28;19929;-64
2024/01/07 03:34:50;;;;;;;;;;;;;;;17.63;66.38;96612.59;2090684;28;19972;-64
2024/01/07 03:35:50;;;;;;;;;;;;;;;17.63;66.36;96617.97;2088691;28;19928;-65
2024/01/07 03:36:52;;;;;;;;;;;;;;;17.63;66.38;96611.75;2089650;28;20180;-65
2024/01/07 03:37:53;;;;;;;;;;;;;;;17.61;66.22;96612.03;2092334;28;19928;-65
2024/01/07 03:38:55;;;;;;;;;;;;;;;17.62;66.37;96615.50;2086933;28;19974;-64
2024/01/07 03:39:56;;;;;;;;;;;;;;;17.62;66.30;96612.84;2089320;28;19966;-63
2024/01/07 03:40:58;;;;;;;;;;;;;;;17.62;66.04;96618.19;2090499;28;19932;-65
2024/01/07 03:41:59;;;;;;;;;;;;;;;17.61;66.35;96617.38;2087025;28;20059;-65
2024/01/07 03:43:00;;;;;;;;;;;;;;;17.64;66.01;96614.22;2089813;28;19940;-64
2024/01/07 03:44:02;;;;;;;;;;;;;;;17.62;66.06;96610.16;2088827;28;20023;-65
2024/01/07 03:45:02;;;;;;;;;;;;;;;17.60;66.37;96612.25;2087740;28;20311;-65
2024/01/07 03:46:04;;;;;;;;;;;;;;;17.62;66.23;96615.50;2090681;28;19962;-65
2024/01/07 03:47:05;;;;;;;;;;;;;;;17.64;66.17;96616.88;2089499;28;19929;-64
2024/01/07 03:48:07;;;;;;;;;;;;;;;17.60;66.06;96615.75;2089133;28;19971;-65
2024/01/07 03:49:08;;;;;;;;;;;;;;;17.68;65.82;96616.41;2090189;28;19932;-65
2024/01/07 03:50:09;;;;;;;;;;;;;;;17.64;66.08;96614.22;2085919;28;20020;-65
2024/01/07 03:51:10;;;;;;;;;;;;;;;17.61;65.91;96621.94;2092958;28;19943;-65
2024/01/07 03:52:11;;;;;;;;;;;;;;;17.57;66.09;96620.78;2087700;28;19931;-65
2024/01/07 03:53:12;;;;;;;;;;;;;;;17.57;66.18;96621.59;2087445;28;19968;-64
2024/01/07 03:54:13;;;;;;;;;;;;;;;17.58;66.12;96623.25;2089166;28;19976;-65
2024/01/07 03:55:15;;;;;;;;;;;;;;;17.57;66.18;96618.91;2087946;28;19932;-64
2024/01/07 03:56:17;;;;;;;;;;;;;;;17.59;66.03;96618.69;2091623;28;19932;-64
2024/01/07 03:57:18;;;;;;;;;;;;;;;17.58;66.25;96620.56;2092654;28;19967;-64
2024/01/07 03:58:19;;;;;;;;;;;;;;;17.58;66.01;96620.56;2088912;28;19978;-65
2024/01/07 03:59:23;;;;;;;;;;;;;;;17.61;66.03;96625.44;2091190;28;19924;-65
2024/01/07 04:00:23;;;;;;;;;;;;;;;17.61;66.00;96620.06;2091768;28;19928;-65
2024/01/07 04:01:25;;;;;;;;;;;;;;;17.59;65.98;96622.19;2089230;28;19931;-65
2024/01/07 04:02:25;;;;;;;;;;;;;;;17.60;65.80;96618.44;2088586;28;19928;-64
2024/01/07 04:03:27;;;;;;;;;;;;;;;17.60;66.16;96621.09;2091197;28;19952;-65
2024/01/07 04:04:28;;;;;;;;;;;;;;;17.59;65.75;96622.19;2093372;28;19936;-65
2024/01/07 04:05:29;;;;;;;;;;;;;;;17.56;66.02;96622.66;2087009;28;19925;-63
2024/01/07 04:06:30;;;;;;;;;;;;;;;17.55;66.00;96620.22;2086650;28;19924;-65
2024/01/07 04:07:32;;;;;;;;;;;;;;;17.56;65.94;96625.34;2087010;28;19928;-64
2024/01/07 04:08:32;;;;;;;;;;;;;;;17.56;66.14;96625.34;2090361;28;19931;-65
2024/01/07 04:09:34;;;;;;;;;;;;;;;17.56;65.94;96621.88;2088375;28;19935;-65
2024/01/07 04:10:34;;;;;;;;;;;;;;;17.56;66.03;96622.66;2086555;28;19933;-64
2024/01/07 04:11:41;;;;;;;;;;;;;;;17.62;65.74;96629.72;2088253;28;20322;-65
2024/01/07 04:12:42;;;;;;;;;;;;;;;17.60;66.03;96629.16;2088731;28;20003;-65
2024/01/07 04:13:44;;;;;;;;;;;;;;;17.58;66.01;96625.91;2091104;28;20291;-64
2024/01/07 04:14:44;;;;;;;;;;;;;;;17.54;65.95;96619.41;2090209;28;19925;-64
2024/01/07 04:15:46;;;;;;;;;;;;;;;17.53;65.92;96628.53;2086549;28;20348;-65
2024/01/07 04:16:47;;;;;;;;;;;;;;;17.52;66.21;96629.56;2088516;28;19929;-65
2024/01/07 04:17:48;;;;;;;;;;;;;;;17.53;65.88;96628.53;2087741;28;19971;-65
2024/01/07 04:18:49;;;;;;;;;;;;;;;17.56;65.91;96628.03;2088427;28;19932;-64
2024/01/07 04:19:50;;;;;;;;;;;;;;;17.53;66.01;96620.47;2087895;28;19933;-65
2024/01/07 04:20:51;;;;;;;;;;;;;;;17.55;66.05;96626.41;2086481;28;20882;-65
2024/01/07 04:21:53;;;;;;;;;;;;;;;17.60;65.89;96626.47;2088106;28;20023;-65
2024/01/07 04:22:53;;;;;;;;;;;;;;;17.55;65.93;96621.06;2085429;28;19932;-64
2024/01/07 04:23:55;;;;;;;;;;;;;;;17.53;66.03;96627.72;2088179;28;19960;-64
2024/01/07 04:24:55;;;;;;;;;;;;;;;17.55;65.80;96630.94;2085613;28;19956;-64
2024/01/07 04:25:57;;;;;;;;;;;;;;;17.57;65.69;96626.16;2089099;28;20011;-65
2024/01/07 04:26:59;;;;;;;;;;;;;;;17.50;65.86;96623.66;2088843;28;19940;-64
2024/01/07 04:27:59;;;;;;;;;;;;;;;17.52;65.79;96626.88;2088135;28;19925;-63
2024/01/07 04:29:01;;;;;;;;;;;;;;;17.50;66.10;96629.00;2087627;28;19935;-65
2024/01/07 04:30:02;;;;;;;;;;;;;;;17.50;66.04;96633.56;2085902;28;19929;-63
2024/01/07 04:31:04;;;;;;;;;;;;;;;17.46;66.17;96630.53;2091196;28;19929;-63
2024/01/07 04:32:05;;;;;;;;;;;;;;;17.46;66.06;96630.53;2090292;28;19955;-65
2024/01/07 04:33:06;;;;;;;;;;;;;;;17.50;65.87;96625.53;2087753;28;19972;-63
2024/01/07 04:34:07;;;;;;;;;;;;;;;17.50;66.14;96633.56;2088047;28;19929;-64
2024/01/07 04:35:09;;;;;;;;;;;;;;;17.54;65.82;96630.13;2087339;28;20453;-65
2024/01/07 04:36:10;;;;;;;;;;;;;;;17.53;65.70;96633.06;2087203;28;19932;-65
2024/01/07 04:37:11;;;;;;;;;;;;;;;17.51;65.90;96630.63;2088172;28;19940;-65
2024/01/07 04:38:12;;;;;;;;;;;;;;;17.47;65.97;96634.03;2087184;28;20024;-65
2024/01/07 04:39:13;;;;;;;;;;;;;;;17.45;66.04;96626.25;2090699;28;19935;-65
2024/01/07 04:40:15;;;;;;;;;;;;;;;17.44;66.28;96635.34;2090010;28;19925;-65
2024/01/07 04:41:15;;;;;;;;;;;;;;;17.44;65.96;96640.72;2091099;28;19932;-64
2024/01/07 04:42:18;;;;;;;;;;;;;;;17.44;66.17;96638.03;2088649;28;20387;-64
2024/01/07 04:43:20;;;;;;;;;;;;;;;17.43;66.04;96629.16;2086353;28;19924;-65
2024/01/07 04:44:20;;;;;;;;;;;;;;;17.40;66.14;96635.00;2087528;28;20307;-64
2024/01/07 04:45:22;;;;;;;;;;;;;;;17.41;66.25;96636.66;2090420;28;19932;-65
2024/01/07 04:46:22;;;;;;;;;;;;;;;17.42;66.27;96632.09;2088500;28;19936;-63
2024/01/07 04:47:25;;;;;;;;;;;;;;;17.42;66.23;96637.47;2091262;28;19931;-64
2024/01/07 04:48:25;;;;;;;;;;;;;;;17.42;66.05;96637.47;2091391;28;19932;-65
2024/01/07 04:49:27;;;;;;;;;;;;;;;17.38;66.27;96639.00;2092629;28;19932;-65
2024/01/07 04:50:27;;;;;;;;;;;;;;;17.35;66.36;96632.25;2091816;28;19932;-63
2024/01/07 04:51:29;;;;;;;;;;;;;;;17.38;66.14;96630.94;2087061;28;20008;-63
2024/01/07 04:52:30;;;;;;;;;;;;;;;17.40;66.02;96634.22;2090207;28;19940;-66
2024/01/07 04:53:31;;;;;;;;;;;;;;;17.39;66.10;96635.28;2088638;28;19990;-65
2024/01/07 04:54:32;;;;;;;;;;;;;;;17.40;66.05;96634.22;2088011;28;19932;-65
2024/01/07 04:55:32;;;;;;;;;;;;;;;17.39;66.15;96635.28;2087215;28;19964;-65
2024/01/07 04:56:34;;;;;;;;;;;;;;;17.37;66.13;96640.06;2090259;28;20510;-65
2024/01/07 04:57:36;;;;;;;;;;;;;;;17.36;66.35;96646.47;2087240;28;19940;-65
2024/01/07 04:58:38;;;;;;;;;;;;;;;17.33;66.30;96633.56;2082966;28;20019;-65
2024/01/07 04:59:38;;;;;;;;;;;;;;;17.36;66.28;96635.75;2084400;28;21128;-63
2024/01/07 05:00:40;;;;;;;;;;;;;;;17.37;66.06;96635.50;2089285;28;19924;-64
2024/01/07 05:01:41;;;;;;;;;;;;;;;17.38;65.95;96639.00;2086324;28;19981;-64
2024/01/07 05:02:42;;;;;;;;;;;;;;;17.38;66.14;96637.16;2091929;28;20379;-64
2024/01/07 05:03:43;;;;;;;;;;;;;;;17.38;66.05;96644.34;2091073;28;21697;-64
2024/01/07 05:04:43;;;;;;;;;;;;;;;17.38;66.04;96639.00;2088288;28;19975;-63
2024/01/07 05:05:45;;;;;;;;;;;;;;;17.34;66.12;96645.91;2088644;28;23447;-65
2024/01/07 05:06:45;;;;;;;;;;;;;;;17.35;66.04;96648.31;2088880;28;19932;-64
2024/01/07 05:07:47;;;;;;;;;;;;;;;17.40;65.99;96642.25;2087446;28;20008;-64
2024/01/07 05:08:48;;;;;;;;;;;;;;;17.37;65.96;96646.22;2088480;28;19925;-64
2024/01/07 05:09:49;;;;;;;;;;;;;;;17.37;65.94;96648.91;2089952;28;19975;-64
2024/01/07 05:10:50;;;;;;;;;;;;;;;17.37;66.15;96646.22;2089749;28;20322;-64
2024/01/07 05:11:50;;;;;;;;;;;;;;;17.37;65.99;96650.78;2088278;28;20023;-63
2024/01/07 05:12:53;;;;;;;;;;;;;;;17.33;65.91;96650.47;2086140;28;20624;-65
2024/01/07 05:13:54;;;;;;;;;;;;;;;17.36;66.09;96649.16;2088541;28;20500;-64
2024/01/07 05:14:54;;;;;;;;;;;;;;;17.34;66.13;96649.41;2090230;28;19933;-63
2024/01/07 05:15:56;;;;;;;;;;;;;;;17.33;66.22;96645.09;2087073;28;19939;-64
2024/01/07 05:16:57;;;;;;;;;;;;;;;17.34;65.99;96646.72;2087589;28;19929;-65
2024/01/07 05:17:58;;;;;;;;;;;;;;;17.37;66.06;96648.09;2089864;28;20623;-65
2024/01/07 05:18:59;;;;;;;;;;;;;;;17.36;65.79;96646.47;2090449;28;19932;-64